Brickell, Florida
Current Conditions -  °F | °C
As of 3:53 AM on Wednesday 26 Nov 2014 (Local Time) from KMIA Reporting Station
Broken Clouds Broken Clouds  
Wind Chill: 79°   Ceiling: 1000
Heat Index: 83°   Visibility: 10mi
Dew Point: 76°   Wind: 8mph
Humidity: 90%   Direction: 200°SSW
Pressure: 29.93"   Gusts: NA
Location:  25.7676°N, 80.1904°W
Report Text: KMIA 260853Z 20007KT 10SM BKN010 26/24 A2993 RMK AO2 SLP136 60002 T02610244 53001 $
Loading
Personal Weather Stations






























Interactive Weather Map New forecast layout! Learn more

10-Day Weather Forecast

Advertisements
Track Severe Weather on mobile